createdAt,value
2018-06-29T00:00:53.566Z,1.90
2018-06-29T00:03:23.781Z,1.85
2018-06-29T00:05:54.055Z,1.80
2018-06-29T00:08:24.228Z,1.90
2018-06-29T00:10:54.304Z,2.13
2018-06-29T00:13:24.549Z,1.93
2018-06-29T00:15:54.822Z,1.63
2018-06-29T00:18:24.771Z,2.00
2018-06-29T00:20:54.806Z,1.87
2018-06-29T00:23:25.895Z,1.98
2018-06-29T00:25:57.103Z,1.83
2018-06-29T00:28:27.770Z,2.10
2018-06-29T00:30:59.383Z,2.00
2018-06-29T00:33:30.065Z,2.02
2018-06-29T00:36:01.123Z,1.80
2018-06-29T00:40:30.928Z,1.50
2018-06-29T00:43:01.215Z,1.70
2018-06-29T00:45:31.408Z,1.80
2018-06-29T00:48:01.921Z,1.90
2018-06-29T00:50:32.075Z,1.80
2018-06-29T00:53:02.430Z,2.20
2018-06-29T00:55:32.449Z,1.70
2018-06-29T00:58:02.401Z,1.80
2018-06-29T01:00:32.784Z,2.10
2018-06-29T01:03:03.016Z,1.70
2018-06-29T01:05:33.482Z,1.90
2018-06-29T01:08:03.504Z,1.77
2018-06-29T01:10:33.688Z,1.83
2018-06-29T01:13:03.863Z,1.82
2018-06-29T01:15:34.168Z,1.60
2018-06-29T01:18:04.408Z,1.70
2018-06-29T01:20:34.444Z,1.87
2018-06-29T01:23:04.610Z,1.90
2018-06-29T01:25:34.923Z,1.82
2018-06-29T01:28:05.116Z,1.77
2018-06-29T01:30:35.300Z,1.97
2018-06-29T01:33:05.434Z,1.87
2018-06-29T01:35:35.301Z,2.10
2018-06-29T01:38:05.683Z,2.37
2018-06-29T01:40:35.709Z,2.30
2018-06-29T01:43:05.804Z,2.30
2018-06-29T01:45:35.685Z,2.10
2018-06-29T01:48:06.218Z,1.75
2018-06-29T01:50:37.443Z,2.22
2018-06-29T01:53:08.376Z,2.00
2018-06-29T01:55:39.661Z,1.75
2018-06-29T01:58:10.435Z,2.00
2018-06-29T02:00:41.659Z,2.10
2018-06-29T02:03:12.511Z,2.10
2018-06-29T02:05:42.871Z,2.03
2018-06-29T02:08:13.212Z,2.07
2018-06-29T02:10:43.195Z,2.10
2018-06-29T02:13:13.425Z,2.27
2018-06-29T02:15:43.609Z,1.77
2018-06-29T02:18:13.756Z,6.40
2018-06-29T02:20:44.023Z,9.97
2018-06-29T02:23:14.159Z,4.10
2018-06-29T02:25:44.536Z,2.50
2018-06-29T02:28:14.746Z,2.10
2018-06-29T02:30:44.856Z,1.90
2018-06-29T02:33:15.098Z,1.97
2018-06-29T02:35:45.303Z,1.87
2018-06-29T02:38:15.090Z,1.85
2018-06-29T02:40:45.131Z,1.90
2018-06-29T02:43:15.318Z,2.10
2018-06-29T02:45:45.268Z,2.13
2018-06-29T02:48:15.311Z,2.53
2018-06-29T02:50:45.289Z,2.70
2018-06-29T02:53:15.331Z,2.30
2018-06-29T02:55:45.362Z,2.37
2018-06-29T02:58:15.385Z,2.60
2018-06-29T03:00:45.568Z,9.08
2018-06-29T03:03:15.530Z,24.57
2018-06-29T03:05:45.534Z,7.07
2018-06-29T03:08:15.801Z,2.83
2018-06-29T03:10:45.978Z,2.40
2018-06-29T03:13:16.184Z,2.50
2018-06-29T03:15:46.294Z,2.50
2018-06-29T03:18:16.118Z,2.50
2018-06-29T03:20:45.940Z,2.30
2018-06-29T03:23:17.071Z,2.43
2018-06-29T03:25:48.051Z,2.55
2018-06-29T03:28:19.185Z,2.30
2018-06-29T03:30:50.068Z,2.57
2018-06-29T03:33:20.549Z,3.05
2018-06-29T03:35:50.639Z,2.40
2018-06-29T03:38:21.109Z,2.23
2018-06-29T03:40:50.567Z,1.90
2018-06-29T03:43:20.724Z,2.17
2018-06-29T03:45:50.918Z,2.63
2018-06-29T03:48:20.960Z,2.70
2018-06-29T03:50:51.034Z,2.30
2018-06-29T03:53:21.266Z,2.23
2018-06-29T03:55:51.189Z,2.43
2018-06-29T03:58:21.288Z,1.97
2018-06-29T04:00:51.475Z,1.97
2018-06-29T04:03:21.807Z,1.90
2018-06-29T04:05:53.175Z,2.20
2018-06-29T04:08:23.300Z,2.20
2018-06-29T04:10:53.670Z,2.00
2018-06-29T04:13:23.778Z,2.13
2018-06-29T04:15:53.929Z,2.47
2018-06-29T04:18:24.060Z,2.40
2018-06-29T04:20:54.236Z,2.10
2018-06-29T04:23:24.779Z,1.95
2018-06-29T04:25:55.725Z,1.85
2018-06-29T04:28:26.120Z,1.80
2018-06-29T04:30:56.253Z,2.12
2018-06-29T04:33:26.541Z,2.87
2018-06-29T04:35:56.649Z,2.45
2018-06-29T04:38:26.858Z,2.70
2018-06-29T04:40:57.070Z,2.90
2018-06-29T04:43:27.070Z,2.67
2018-06-29T04:45:57.050Z,2.43
2018-06-29T04:48:27.135Z,2.50
2018-06-29T04:50:56.914Z,3.00
2018-06-29T04:53:27.581Z,2.27
2018-06-29T04:55:58.097Z,2.67
2018-06-29T04:58:28.274Z,3.23
2018-06-29T05:00:58.678Z,3.13
2018-06-29T05:03:28.826Z,2.85
2018-06-29T05:05:58.878Z,2.50
2018-06-29T05:08:29.035Z,3.10
2018-06-29T05:10:59.200Z,2.90
2018-06-29T05:13:29.519Z,3.43
2018-06-29T05:15:59.741Z,3.53
2018-06-29T05:18:29.855Z,3.40
2018-06-29T05:21:00.044Z,3.77
2018-06-29T05:23:29.979Z,3.87
2018-06-29T05:26:00.515Z,3.60
2018-06-29T05:28:30.705Z,5.07
2018-06-29T05:31:01.761Z,3.45
2018-06-29T05:33:32.089Z,5.13
2018-06-29T05:36:02.330Z,3.50
2018-06-29T05:38:32.504Z,3.20
2018-06-29T05:41:03.035Z,4.80
2018-06-29T05:43:34.166Z,3.80
2018-06-29T05:46:04.249Z,3.80
2018-06-29T05:48:34.346Z,3.47
2018-06-29T05:51:04.490Z,4.37
2018-06-29T05:53:34.609Z,3.40
2018-06-29T05:56:04.855Z,3.97
2018-06-29T05:58:34.987Z,4.05
2018-06-29T06:01:08.296Z,4.10
2018-06-29T06:03:38.698Z,4.40
2018-06-29T06:06:09.445Z,4.78
2018-06-29T06:08:39.620Z,4.70
2018-06-29T06:11:09.881Z,4.97
2018-06-29T06:13:40.049Z,5.33
2018-06-29T06:16:10.046Z,4.47
2018-06-29T06:18:40.111Z,4.20
2018-06-29T06:21:10.585Z,7.30
2018-06-29T06:23:40.856Z,9.93
2018-06-29T06:26:11.250Z,5.47
2018-06-29T06:28:41.527Z,4.97
2018-06-29T06:40:31.401Z,4.40
2018-06-29T06:43:18.522Z,5.40
2018-06-29T06:45:49.647Z,4.65
2018-06-29T06:48:19.293Z,6.00
2018-06-29T06:50:49.572Z,6.07
2018-06-29T06:53:19.829Z,4.87
2018-06-29T06:55:50.397Z,5.47
2018-06-29T06:58:20.947Z,5.28
2018-06-29T07:00:51.621Z,4.87
2018-06-29T07:03:21.649Z,4.60
2018-06-29T07:05:51.676Z,5.67
2018-06-29T07:08:22.127Z,4.57
2018-06-29T07:10:52.236Z,4.87
2018-06-29T07:13:22.365Z,4.10
2018-06-29T07:15:52.633Z,4.27
2018-06-29T07:18:22.843Z,4.08
2018-06-29T07:20:53.021Z,4.03
2018-06-29T07:23:23.117Z,4.40
2018-06-29T07:25:53.445Z,3.90
2018-06-29T07:28:23.753Z,3.53
2018-06-29T07:30:53.906Z,2.83
2018-06-29T07:33:24.040Z,3.60
2018-06-29T07:35:54.059Z,3.27
2018-06-29T07:38:24.215Z,2.93
2018-06-29T07:40:54.551Z,3.53
2018-06-29T07:43:24.640Z,2.63
2018-06-29T07:45:54.978Z,2.97
2018-06-29T07:48:25.056Z,2.87
2018-06-29T07:50:54.925Z,2.70
2018-06-29T07:53:25.107Z,2.50
2018-06-29T07:55:55.630Z,3.20
2018-06-29T07:58:25.981Z,2.50
2018-06-29T08:01:02.472Z,3.03
2018-06-29T08:03:35.362Z,2.47
2018-06-29T08:06:05.486Z,2.80
2018-06-29T08:08:35.459Z,3.17
2018-06-29T08:11:05.585Z,2.80
2018-06-29T08:13:35.736Z,3.00
2018-06-29T08:16:06.106Z,3.12
2018-06-29T08:18:36.256Z,3.10
2018-06-29T08:21:06.526Z,3.00
2018-06-29T08:23:36.971Z,2.90
2018-06-29T08:26:23.365Z,3.33
2018-06-29T08:28:53.604Z,2.67
2018-06-29T08:31:23.748Z,2.40
2018-06-29T08:33:53.953Z,2.67
2018-06-29T08:36:24.245Z,2.70
2018-06-29T08:38:54.436Z,2.50
2018-06-29T08:41:24.547Z,2.40
2018-06-29T08:43:54.635Z,2.33
2018-06-29T08:46:24.805Z,2.22
2018-06-29T08:48:55.125Z,2.23
2018-06-29T08:51:25.331Z,2.20
2018-06-29T08:53:55.616Z,2.27
2018-06-29T08:56:26.244Z,2.10
2018-06-29T08:58:57.009Z,2.20
2018-06-29T09:01:27.306Z,2.40
2018-06-29T09:03:57.356Z,2.08
2018-06-29T09:06:27.496Z,1.60
2018-06-29T09:08:57.832Z,1.90
2018-06-29T09:11:28.090Z,2.20
2018-06-29T09:13:58.193Z,2.03
2018-06-29T09:16:28.385Z,2.00
2018-06-29T09:18:58.581Z,2.10
2018-06-29T09:21:29.460Z,2.40
2018-06-29T09:24:00.385Z,2.00
2018-06-29T09:26:31.172Z,2.30
2018-06-29T09:29:02.411Z,2.30
2018-06-29T09:31:33.315Z,2.05
2018-06-29T09:40:31.213Z,2.07
2018-06-29T09:43:01.321Z,1.90
2018-06-29T09:45:31.592Z,1.80
2018-06-29T09:48:02.376Z,1.70
2018-06-29T09:50:32.507Z,1.70
2018-06-29T09:53:02.678Z,1.70
2018-06-29T09:55:32.874Z,1.57
2018-06-29T09:58:03.172Z,1.77
2018-06-29T10:00:33.696Z,1.70
2018-06-29T10:03:04.246Z,1.80
2018-06-29T10:05:34.791Z,1.70
2018-06-29T10:08:04.971Z,1.70
2018-06-29T10:10:35.140Z,1.80
2018-06-29T10:13:05.117Z,1.95
2018-06-29T10:15:35.443Z,1.80
2018-06-29T10:18:05.546Z,2.10
2018-06-29T10:20:35.742Z,1.60
2018-06-29T10:23:06.338Z,2.00
2018-06-29T10:25:36.713Z,1.73
2018-06-29T10:28:07.390Z,1.67
2018-06-29T10:30:37.559Z,2.10
2018-06-29T10:33:07.683Z,1.90
2018-06-29T10:35:38.062Z,1.97
2018-06-29T10:38:08.341Z,1.92
2018-06-29T10:40:38.523Z,1.53
2018-06-29T10:43:08.594Z,1.93
2018-06-29T10:45:38.721Z,1.80
2018-06-29T10:48:08.852Z,1.60
2018-06-29T10:50:39.171Z,1.60
2018-06-29T10:53:10.408Z,1.90
2018-06-29T11:00:31.161Z,1.73
2018-06-29T11:03:01.349Z,1.80
2018-06-29T11:05:31.620Z,1.80
2018-06-29T11:08:01.778Z,1.40
2018-06-29T11:10:32.041Z,1.70
2018-06-29T11:13:02.302Z,2.08
2018-06-29T11:15:32.618Z,1.77
2018-06-29T11:18:02.789Z,1.60
2018-06-29T11:20:33.072Z,1.92
2018-06-29T11:23:03.223Z,1.67
2018-06-29T11:25:33.371Z,1.47
2018-06-29T11:28:03.564Z,1.63
2018-06-29T11:30:33.649Z,1.80
2018-06-29T11:33:03.669Z,1.80
2018-06-29T11:35:34.102Z,1.30
2018-06-29T11:38:04.397Z,1.63
2018-06-29T11:40:34.557Z,2.83
2018-06-29T11:43:04.639Z,2.00
2018-06-29T11:45:34.688Z,1.70
2018-06-29T11:48:05.242Z,1.60
2018-06-29T11:50:35.988Z,1.27
2018-06-29T11:53:07.230Z,1.47
2018-06-29T11:55:38.378Z,1.40
2018-06-29T11:58:09.395Z,1.70
2018-06-29T12:00:40.879Z,1.32
2018-06-29T12:03:11.868Z,1.70
2018-06-29T12:05:42.114Z,1.80
2018-06-29T12:08:12.284Z,1.63
2018-06-29T12:10:41.777Z,1.60
2018-06-29T12:13:11.987Z,1.80
2018-06-29T12:15:42.178Z,1.60
2018-06-29T12:18:12.421Z,1.50
2018-06-29T12:20:42.581Z,1.47
2018-06-29T12:23:12.634Z,1.43
2018-06-29T12:25:43.049Z,1.57
2018-06-29T12:28:13.053Z,1.45
2018-06-29T12:30:43.357Z,1.40
2018-06-29T12:33:13.361Z,1.83
2018-06-29T12:35:43.590Z,1.60
2018-06-29T12:38:13.772Z,1.40
2018-06-29T12:40:44.163Z,1.57
2018-06-29T12:43:14.694Z,1.65
2018-06-29T12:45:44.720Z,1.60
2018-06-29T12:48:14.962Z,1.70
2018-06-29T12:50:45.253Z,1.50
2018-06-29T12:53:15.292Z,1.50
2018-06-29T12:55:45.510Z,1.50
2018-06-29T12:58:15.549Z,1.70
2018-06-29T13:00:45.393Z,1.40
2018-06-29T13:03:15.729Z,1.53
2018-06-29T13:05:46.044Z,1.70
2018-06-29T13:08:16.317Z,1.80
2018-06-29T13:10:46.497Z,1.77
2018-06-29T13:13:16.573Z,1.37
2018-06-29T13:15:47.148Z,1.72
2018-06-29T13:18:18.293Z,1.70
2018-06-29T13:30:32.404Z,1.63
2018-06-29T13:33:02.758Z,1.90
2018-06-29T13:35:33.692Z,1.50
2018-06-29T13:38:03.884Z,1.70
2018-06-29T13:40:34.072Z,1.87
2018-06-29T13:43:04.644Z,1.82
2018-06-29T13:45:35.318Z,1.50
2018-06-29T13:48:05.655Z,2.33
2018-06-29T13:50:36.277Z,2.08
2018-06-29T13:53:06.904Z,1.85
2018-06-29T13:55:37.203Z,1.45
2018-06-29T13:58:07.421Z,2.20
2018-06-29T14:00:37.618Z,1.70
2018-06-29T14:03:07.941Z,1.70
2018-06-29T14:05:38.284Z,1.80
2018-06-29T14:08:08.192Z,4.43
2018-06-29T14:10:38.379Z,5.77
2018-06-29T14:13:08.596Z,2.33
2018-06-29T14:15:38.789Z,2.00
2018-06-29T14:18:08.852Z,1.93
2018-06-29T14:20:39.956Z,2.00
2018-06-29T14:23:11.105Z,2.00
2018-06-29T14:25:42.346Z,2.00
2018-06-29T14:28:13.416Z,1.67
2018-06-29T14:30:44.455Z,1.60
2018-06-29T14:33:15.697Z,1.80
2018-06-29T14:35:46.703Z,1.70
2018-06-29T14:38:17.647Z,1.80
2018-06-29T14:40:49.208Z,1.57
2018-06-29T14:43:19.874Z,1.70
2018-06-29T14:45:50.561Z,1.67
2018-06-29T14:48:20.386Z,1.60
2018-06-29T14:50:50.994Z,1.60
2018-06-29T14:53:21.314Z,1.57
2018-06-29T14:55:51.779Z,1.60
2018-06-29T14:58:22.657Z,1.60
2018-06-29T15:00:52.912Z,1.50
2018-06-29T15:03:23.667Z,1.50
2018-06-29T15:05:54.331Z,1.33
2018-06-29T15:08:24.376Z,1.70
2018-06-29T15:10:54.641Z,3.40
2018-06-29T15:13:25.033Z,1.93
2018-06-29T15:15:55.051Z,1.63
2018-06-29T15:18:25.423Z,1.60
2018-06-29T15:20:55.598Z,1.67
2018-06-29T15:23:25.785Z,1.40
2018-06-29T15:25:55.998Z,1.47
2018-06-29T15:28:26.345Z,1.50
2018-06-29T15:30:57.048Z,1.50
2018-06-29T15:33:27.542Z,1.63
2018-06-29T15:35:57.792Z,1.53
2018-06-29T15:38:27.838Z,1.80
2018-06-29T15:40:58.019Z,1.80
2018-06-29T15:43:28.124Z,1.30
2018-06-29T15:45:58.327Z,1.67
2018-06-29T15:48:28.541Z,4.57
2018-06-29T15:50:58.898Z,2.50
2018-06-29T15:53:30.587Z,1.63
2018-06-29T15:56:01.850Z,1.80
2018-06-29T15:58:32.082Z,1.90
2018-06-29T16:01:02.285Z,1.60
2018-06-29T16:03:32.692Z,1.40
2018-06-29T16:06:03.559Z,1.65
2018-06-29T16:08:34.894Z,1.50
2018-06-29T16:11:06.054Z,1.40
2018-06-29T16:13:37.168Z,1.60
2018-06-29T16:16:07.639Z,1.23
2018-06-29T16:18:38.704Z,1.57
2018-06-29T16:21:09.648Z,1.60
2018-06-29T16:23:40.102Z,1.30
2018-06-29T16:26:10.655Z,1.50
2018-06-29T16:28:41.548Z,1.30
2018-06-29T16:31:11.688Z,1.60
2018-06-29T16:33:41.960Z,1.43
2018-06-29T16:36:12.022Z,1.17
2018-06-29T16:38:42.270Z,1.10
2018-06-29T16:41:12.512Z,1.57
2018-06-29T16:43:42.356Z,13.73
2018-06-29T16:46:12.660Z,2.37
2018-06-29T16:48:42.960Z,1.87
2018-06-29T16:51:13.213Z,2.30
2018-06-29T16:53:43.333Z,6.40
2018-06-29T16:56:13.545Z,2.33
2018-06-29T16:58:43.837Z,1.97
2018-06-29T17:01:14.065Z,1.65
2018-06-29T17:03:44.572Z,1.95
2018-06-29T17:06:14.840Z,1.60
2018-06-29T17:08:45.391Z,1.45
2018-06-29T17:11:15.633Z,1.80
2018-06-29T17:13:46.423Z,1.67
2018-06-29T17:16:16.957Z,1.87
2018-06-29T17:18:47.411Z,1.87
2018-06-29T17:21:17.633Z,1.70
2018-06-29T17:23:47.804Z,1.50
2018-06-29T17:26:18.067Z,1.60
2018-06-29T17:28:48.351Z,1.40
2018-06-29T17:31:18.428Z,2.40
2018-06-29T17:33:49.692Z,5.62
2018-06-29T17:36:19.668Z,1.70
2018-06-29T17:38:49.846Z,1.87
2018-06-29T17:41:20.183Z,1.90
2018-06-29T17:43:50.423Z,1.77
2018-06-29T17:46:20.358Z,1.70
2018-06-29T17:48:50.502Z,1.80
2018-06-29T18:00:30.891Z,1.90
2018-06-29T18:03:01.194Z,2.00
2018-06-29T18:05:32.165Z,2.10
2018-06-29T18:08:02.768Z,1.87
2018-06-29T18:10:32.879Z,2.33
2018-06-29T18:13:03.055Z,2.00
2018-06-29T18:20:31.325Z,1.90
2018-06-29T18:23:01.741Z,1.87
2018-06-29T18:25:31.952Z,1.98
2018-06-29T18:28:02.156Z,1.95
2018-06-29T18:30:32.310Z,5.42
2018-06-29T18:33:02.604Z,3.58
2018-06-29T18:35:33.070Z,2.50
2018-06-29T18:38:03.799Z,2.87
2018-06-29T18:40:34.377Z,2.53
2018-06-29T18:43:05.274Z,2.62
2018-06-29T18:45:36.226Z,2.60
2018-06-29T18:48:06.813Z,2.45
2018-06-29T18:50:37.499Z,2.40
2018-06-29T18:53:08.034Z,2.40
2018-06-29T18:55:38.414Z,2.45
2018-06-29T18:58:08.784Z,2.30
2018-06-29T19:00:38.981Z,2.60
2018-06-29T19:03:09.468Z,2.67
2018-06-29T19:05:39.873Z,2.40
2018-06-29T19:08:10.193Z,2.60
2018-06-29T19:10:40.529Z,2.08
2018-06-29T19:13:10.727Z,3.30
2018-06-29T19:15:41.040Z,10.32
2018-06-29T19:18:11.767Z,3.60
2018-06-29T19:20:42.193Z,3.12
2018-06-29T19:23:12.313Z,3.07
2018-06-29T19:25:42.533Z,3.57
2018-06-29T19:28:12.673Z,3.40
2018-06-29T19:30:42.779Z,3.30
2018-06-29T19:33:13.877Z,2.92
2018-06-29T19:35:44.548Z,2.72
2018-06-29T19:38:15.192Z,2.80
2018-06-29T19:40:45.799Z,2.93
2018-06-29T19:43:16.161Z,3.00
2018-06-29T19:45:47.047Z,3.63
2018-06-29T19:48:17.327Z,3.27
2018-06-29T19:50:48.233Z,3.00
2018-06-29T19:53:18.687Z,3.23
2018-06-29T19:55:49.071Z,4.27
2018-06-29T19:58:19.408Z,4.70
2018-06-29T20:00:50.129Z,3.63
2018-06-29T20:03:20.662Z,3.63
2018-06-29T20:05:51.114Z,3.63
2018-06-29T20:08:21.414Z,3.15
2018-06-29T20:10:51.831Z,3.30
2018-06-29T20:13:22.040Z,3.10
2018-06-29T20:15:52.264Z,3.10
2018-06-29T20:18:22.549Z,3.30
2018-06-29T20:20:52.765Z,3.30
2018-06-29T20:23:22.838Z,3.25
2018-06-29T20:25:52.983Z,3.90
2018-06-29T20:28:23.201Z,3.33
2018-06-29T20:30:54.045Z,4.40
2018-06-29T20:33:24.558Z,3.77
2018-06-29T20:35:55.055Z,3.83
2018-06-29T20:38:25.469Z,4.30
2018-06-29T20:40:55.895Z,3.62
2018-06-29T20:43:26.270Z,20.90
2018-06-29T20:45:56.513Z,10.30
2018-06-29T20:48:26.617Z,4.47
2018-06-29T20:50:56.881Z,4.50
2018-06-29T20:53:27.172Z,4.33
2018-06-29T20:55:57.383Z,4.63
2018-06-29T20:58:27.763Z,4.57
2018-06-29T21:00:57.919Z,4.43
2018-06-29T21:03:28.284Z,3.60
2018-06-29T21:05:58.727Z,4.10
2018-06-29T21:08:28.887Z,4.67
2018-06-29T21:10:59.356Z,4.23
2018-06-29T21:13:29.600Z,8.28
2018-06-29T21:15:59.840Z,9.70
2018-06-29T21:18:30.239Z,5.00
2018-06-29T21:21:00.366Z,4.10
2018-06-29T21:23:30.959Z,4.17
2018-06-29T21:26:01.464Z,4.20
2018-06-29T21:28:31.812Z,4.60
2018-06-29T21:31:01.918Z,4.40
2018-06-29T21:33:32.246Z,4.50
2018-06-29T21:36:02.803Z,4.40
2018-06-29T21:38:33.354Z,4.47
2018-06-29T21:41:03.710Z,4.27
2018-06-29T21:43:33.903Z,4.67
2018-06-29T21:46:04.185Z,5.03
2018-06-29T21:48:34.317Z,4.70
2018-06-29T21:51:04.400Z,5.03
2018-06-29T21:53:34.783Z,4.73
2018-06-29T21:56:05.250Z,4.73
2018-06-29T21:58:35.603Z,4.55
2018-06-29T22:01:05.864Z,4.62
2018-06-29T22:03:36.303Z,4.75
2018-06-29T22:06:06.750Z,4.60
2018-06-29T22:08:37.251Z,4.97
2018-06-29T22:11:07.913Z,4.37
2018-06-29T22:13:38.186Z,4.60
2018-06-29T22:16:08.294Z,5.28
2018-06-29T22:18:38.601Z,4.57
2018-06-29T22:21:08.816Z,3.52
2018-06-29T22:23:39.534Z,4.70
2018-06-29T22:26:09.930Z,4.47
2018-06-29T22:28:39.695Z,4.70
2018-06-29T22:31:10.069Z,4.40
2018-06-29T22:33:40.583Z,3.93
2018-06-29T22:36:10.834Z,4.40
2018-06-29T22:38:41.863Z,4.10
2018-06-29T22:41:12.659Z,4.30
2018-06-29T22:43:42.884Z,4.60
2018-06-29T22:46:13.418Z,4.27
2018-06-29T22:48:44.017Z,4.57
2018-06-29T22:51:13.988Z,4.70
2018-06-29T22:53:44.124Z,4.07
2018-06-29T22:56:14.376Z,4.13
2018-06-29T22:58:44.493Z,4.63
2018-06-29T23:01:14.865Z,4.23
2018-06-29T23:03:50.059Z,3.93
2018-06-29T23:06:20.203Z,4.73
2018-06-29T23:08:50.380Z,4.97
2018-06-29T23:11:20.586Z,6.53
2018-06-29T23:13:50.652Z,9.90
2018-06-29T23:16:20.781Z,17.70
2018-06-29T23:18:50.875Z,7.67
2018-06-29T23:21:20.891Z,7.17
2018-06-29T23:23:51.309Z,6.33
2018-06-29T23:26:21.501Z,7.80
2018-06-29T23:28:51.839Z,6.50
2018-06-29T23:31:21.977Z,7.42
2018-06-29T23:33:52.126Z,5.80
2018-06-29T23:36:22.306Z,6.13
2018-06-29T23:38:52.588Z,5.50
2018-06-29T23:41:22.720Z,5.37
2018-06-29T23:43:52.915Z,5.13
2018-06-29T23:46:22.729Z,5.12
2018-06-29T23:48:52.729Z,5.37
2018-06-29T23:51:22.626Z,5.53
2018-06-29T23:53:52.595Z,5.40
2018-06-29T23:56:22.449Z,5.10
2018-06-29T23:58:52.722Z,5.60
